Hlavní strana
METAR-TAF:

METAR-TAF

Letiště :

Mitiga International Airport

Tripolis, Libye

zeměpisná šířka: 32-54N, zeměpisná délka: 13-17E, výška: 11 m

METAR: chybějící

Čas: 19:05 (17:05 UTC)

Předpověď počasí

Zpráva byla vytvořena před 6 hodinami a 5 minutami, v 11:00 UTC
Předpověď platná od 23 v 12 UTC do 24 v 12 UTC
Severní vítr 10 kt
Viditelnost 10 km a více
Polojasno ve výšce 2500 ft
Změna
od 23 v 18 UTC do 23 v 20 UTC
vítr z různých směrů 2 kt
Pravděpodobnost 30%
od 24 v 03 UTC do 24 v 06 UTC
Viditelnost: 5000 m
kouřmo
Změna
od 24 v 06 UTC do 24 v 08 UTC
Západojihozápadní vítr 10 kt
Změna
od 24 v 10 UTC do 24 v 12 UTC
Západoseverozápadní vítr 12 kt

TAF: HLLM 231100Z 2312/2412 35010KT 9999 SCT025 BECMG 2318/2320 VRB02KT PROB30 2403/2406 5000 BR NSC BECMG 2406/2408 24010KT BECMG 2410/2412 30012KT

Stav a předpovědi počasí z více než 4 000 letišť (zprávy METAR a TAF).

Červené a žluté tečky na mapě představují dostupné meteorologické stanice.

Když kurzor umístíte na tečku, zobrazí se název stanice.

Pak kliknutím zobrazíte stav a předpověď počasí.

Chcete-li změnit mapu, kliknutím na zelené tlačítko se znaménkem +mapu přiblížíte, kliknutím na zelené tlačítko se znaménkem – mapu oddálíte a kliknutím na zelené šipky přejdete na sousední mapy.


METAR-TAF: